Highland-University Park's Hourly Summary for Wednesday, May 16, 2018
Hour Temp
(f)
RH
(%)
Solar Rad.
(MJ/m2)
Rainfall
(in)
Wind
(mph)
5/16/2018 12:00 AM 72 71 0 0 0.28
5/16/2018 1:00 AM 72 71 0 0 0.25
5/16/2018 2:00 AM 71 75 0 0 0.13
5/16/2018 3:00 AM 70 77 0 0 0.15
5/16/2018 4:00 AM 70 78 0 0 0.33
5/16/2018 5:00 AM 69 78 0 0 1.08
5/16/2018 6:00 AM 69 78 0 0 3.06
5/16/2018 7:00 AM 68 79 0.03 0 0.66
5/16/2018 8:00 AM 69 78 0.14 0 0.12
5/16/2018 9:00 AM 72 65 0.43 0 0.38
5/16/2018 10:00 AM 76 56 1.73 0 0.97
5/16/2018 11:00 AM 79 53 1.73 0 0.94
5/16/2018 12:00 PM 81 51 1.77 0 1.08
5/16/2018 1:00 PM 85 46 3.19 0 1.47
5/16/2018 2:00 PM 88 42 3.2 0 1.53
5/16/2018 3:00 PM 90 36 3.05 0 1.5
5/16/2018 4:00 PM 91 32 2.81 0 1.45
5/16/2018 5:00 PM 93 29 2.3 0 1.44
5/16/2018 6:00 PM 93 28 1.7 0 1.54
5/16/2018 7:00 PM 92 28 1.03 0 0.85
5/16/2018 8:00 PM 89 31 0.22 0 0.43
5/16/2018 9:00 PM 82 43 0.01 0 0.41
5/16/2018 10:00 PM 80 53 0 0 0.58
5/16/2018 11:00 PM 78 57 0 0 0.5
Data Summary 79 55 23.34 0.00 0.88